createdAt,value
2022-09-03T00:01:01.149Z,2.43
2022-09-03T00:03:29.771Z,1.63
2022-09-03T00:06:02.185Z,1.57
2022-09-03T00:08:32.612Z,1.73
2022-09-03T00:11:02.111Z,1.73
2022-09-03T00:13:31.747Z,1.70
2022-09-03T00:16:01.004Z,1.50
2022-09-03T00:18:31.980Z,2.30
2022-09-03T00:21:01.679Z,1.57
2022-09-03T00:23:30.931Z,1.40
2022-09-03T00:26:01.602Z,1.40
2022-09-03T00:28:30.781Z,1.63
2022-09-03T00:31:07.787Z,1.60
2022-09-03T00:33:36.237Z,1.80
2022-09-03T00:36:07.131Z,1.57
2022-09-03T00:38:34.253Z,1.87
2022-09-03T00:41:07.032Z,1.80
2022-09-03T00:43:40.412Z,1.60
2022-09-03T00:46:13.239Z,1.50
2022-09-03T00:48:49.624Z,1.60
2022-09-03T00:51:22.548Z,1.80
2022-09-03T00:53:52.761Z,1.60
2022-09-03T00:56:24.181Z,1.67
2022-09-03T00:58:59.568Z,1.50
2022-09-03T01:01:30.571Z,1.47
2022-09-03T01:04:03.704Z,1.40
2022-09-03T01:06:34.419Z,1.30
2022-09-03T01:09:08.975Z,1.63
2022-09-03T01:11:39.011Z,1.93
2022-09-03T01:14:12.546Z,1.80
2022-09-03T01:16:45.413Z,2.10
2022-09-03T01:19:18.407Z,1.47
2022-09-03T01:21:53.890Z,1.63
2022-09-03T01:24:32.825Z,1.23
2022-09-03T01:27:05.830Z,1.30
2022-09-03T01:29:36.397Z,1.20
2022-09-03T01:32:09.606Z,1.50
2022-09-03T01:34:43.400Z,1.40
2022-09-03T01:37:15.362Z,1.50
2022-09-03T01:39:47.324Z,1.57
2022-09-03T01:42:21.246Z,2.07
2022-09-03T01:44:58.703Z,1.40
2022-09-03T01:47:30.062Z,1.40
2022-09-03T01:50:00.495Z,1.67
2022-09-03T01:52:36.063Z,2.00
2022-09-03T01:55:10.592Z,1.70
2022-09-03T01:57:42.056Z,1.60
2022-09-03T02:00:11.982Z,1.70
2022-09-03T02:02:39.886Z,1.83
2022-09-03T02:05:09.559Z,1.17
2022-09-03T02:07:39.499Z,1.60
2022-09-03T02:10:07.714Z,1.13
2022-09-03T02:12:36.246Z,1.60
2022-09-03T02:15:06.693Z,1.87
2022-09-03T02:17:35.588Z,1.70
2022-09-03T02:20:04.605Z,1.60
2022-09-03T02:22:32.508Z,1.50
2022-09-03T02:24:59.713Z,1.50
2022-09-03T02:27:26.928Z,1.90
2022-09-03T02:29:54.157Z,1.57
2022-09-03T02:32:21.324Z,1.40
2022-09-03T02:34:49.813Z,1.80
2022-09-03T02:37:18.016Z,1.50
2022-09-03T02:39:45.359Z,1.67
2022-09-03T02:42:13.314Z,1.60
2022-09-03T02:44:42.281Z,1.30
2022-09-03T02:47:09.811Z,1.47
2022-09-03T02:49:37.101Z,1.60
2022-09-03T02:52:07.161Z,1.60
2022-09-03T02:54:34.322Z,1.90
2022-09-03T02:57:01.470Z,2.07
2022-09-03T02:59:28.629Z,1.53
2022-09-03T03:01:56.095Z,2.60
2022-09-03T03:04:28.238Z,1.80
2022-09-03T03:06:55.367Z,1.73
2022-09-03T03:09:23.854Z,2.20
2022-09-03T03:11:51.021Z,1.67
2022-09-03T03:14:18.231Z,1.57
2022-09-03T03:16:45.456Z,1.70
2022-09-03T03:19:12.790Z,1.63
2022-09-03T03:21:40.292Z,1.43
2022-09-03T03:24:07.577Z,1.50
2022-09-03T03:26:36.122Z,1.60
2022-09-03T03:29:03.748Z,1.20
2022-09-03T03:31:31.180Z,1.57
2022-09-03T03:33:59.131Z,1.20
2022-09-03T03:36:27.554Z,1.37
2022-09-03T03:38:55.573Z,1.70
2022-09-03T03:41:23.942Z,1.20
2022-09-03T03:43:54.645Z,1.50
2022-09-03T03:46:22.016Z,1.47
2022-09-03T03:48:49.240Z,1.80
2022-09-03T03:51:16.785Z,1.57
2022-09-03T03:53:43.955Z,1.50
2022-09-03T03:56:12.216Z,1.80
2022-09-03T03:58:39.724Z,1.50
2022-09-03T04:01:09.533Z,1.60
2022-09-03T04:03:37.038Z,1.50
2022-09-03T04:06:05.025Z,1.60
2022-09-03T04:08:34.665Z,1.60
2022-09-03T04:11:02.427Z,1.73
2022-09-03T04:13:29.836Z,1.73
2022-09-03T04:16:00.834Z,1.50
2022-09-03T04:18:29.354Z,1.70
2022-09-03T04:20:59.741Z,1.30
2022-09-03T04:23:26.847Z,1.70
2022-09-03T04:25:54.143Z,1.40
2022-09-03T04:28:21.246Z,1.70
2022-09-03T04:30:49.246Z,1.50
2022-09-03T04:33:16.612Z,1.90
2022-09-03T04:35:45.122Z,1.40
2022-09-03T04:38:12.300Z,1.63
2022-09-03T04:40:39.455Z,1.53
2022-09-03T04:43:06.606Z,1.60
2022-09-03T04:45:33.790Z,1.57
2022-09-03T04:48:01.409Z,2.00
2022-09-03T04:50:29.064Z,1.20
2022-09-03T04:53:07.041Z,1.70
2022-09-03T04:55:35.533Z,1.30
2022-09-03T04:58:02.730Z,1.80
2022-09-03T05:00:29.880Z,1.57
2022-09-03T05:03:00.653Z,1.30
2022-09-03T05:05:27.832Z,1.70
2022-09-03T05:07:58.363Z,1.67
2022-09-03T05:10:26.834Z,1.30
2022-09-03T05:12:59.035Z,1.47
2022-09-03T05:15:26.190Z,1.40
2022-09-03T05:17:56.566Z,1.50
2022-09-03T05:20:23.698Z,1.67
2022-09-03T05:22:50.846Z,2.10
2022-09-03T05:25:18.004Z,1.80
2022-09-03T05:27:46.549Z,1.73
2022-09-03T05:30:13.864Z,1.57
2022-09-03T05:32:40.978Z,1.70
2022-09-03T05:35:09.091Z,1.30
2022-09-03T05:37:36.248Z,1.90
2022-09-03T05:40:03.805Z,1.40
2022-09-03T05:42:31.015Z,2.00
2022-09-03T05:44:59.512Z,1.30
2022-09-03T05:47:26.694Z,1.30
2022-09-03T05:49:53.841Z,1.43
2022-09-03T05:52:20.979Z,1.30
2022-09-03T05:54:48.134Z,1.60
2022-09-03T05:57:15.261Z,1.37
2022-09-03T05:59:42.430Z,1.67
2022-09-03T06:02:11.024Z,1.53
2022-09-03T06:04:39.289Z,1.40
2022-09-03T06:07:06.462Z,1.50
2022-09-03T06:09:33.632Z,1.53
2022-09-03T06:12:03.964Z,1.40
2022-09-03T06:14:31.806Z,1.70
2022-09-03T06:16:58.993Z,1.37
2022-09-03T06:19:27.497Z,1.60
2022-09-03T06:21:54.643Z,1.57
2022-09-03T06:24:22.422Z,1.40
2022-09-03T06:26:53.598Z,1.60
2022-09-03T06:29:20.752Z,1.30
2022-09-03T06:31:48.044Z,1.33
2022-09-03T06:34:15.282Z,1.30
2022-09-03T06:36:44.366Z,1.87
2022-09-03T06:39:11.523Z,1.10
2022-09-03T06:41:38.661Z,1.30
2022-09-03T06:44:06.888Z,1.50
2022-09-03T06:46:34.899Z,1.20
2022-09-03T06:49:02.181Z,1.47
2022-09-03T06:51:30.472Z,1.73
2022-09-03T06:54:02.164Z,1.60
2022-09-03T06:56:29.652Z,1.67
2022-09-03T06:58:57.694Z,1.57
2022-09-03T07:01:26.151Z,1.30
2022-09-03T07:03:54.246Z,1.30
2022-09-03T07:06:21.486Z,1.47
2022-09-03T07:08:48.667Z,1.13
2022-09-03T07:11:18.303Z,1.23
2022-09-03T07:13:46.216Z,1.33
2022-09-03T07:16:14.633Z,1.57
2022-09-03T07:18:41.831Z,1.30
2022-09-03T07:21:09.733Z,1.37
2022-09-03T07:23:37.528Z,1.67
2022-09-03T07:26:05.696Z,1.50
2022-09-03T07:28:35.119Z,1.77
2022-09-03T07:31:03.005Z,1.50
2022-09-03T07:33:33.632Z,1.37
2022-09-03T07:36:04.548Z,1.20
2022-09-03T07:38:31.709Z,1.80
2022-09-03T07:40:58.943Z,1.40
2022-09-03T07:43:26.403Z,1.60
2022-09-03T07:45:54.905Z,1.70
2022-09-03T07:48:22.173Z,1.97
2022-09-03T07:50:49.388Z,1.70
2022-09-03T07:53:16.895Z,1.40
2022-09-03T07:55:44.053Z,1.50
2022-09-03T07:58:11.191Z,1.73
2022-09-03T08:00:38.476Z,1.70
2022-09-03T08:03:07.038Z,1.60
2022-09-03T08:05:34.517Z,1.20
2022-09-03T08:08:01.698Z,1.53
2022-09-03T08:10:35.090Z,1.97
2022-09-03T08:13:02.253Z,1.53
2022-09-03T08:15:29.402Z,1.33
2022-09-03T08:17:59.610Z,1.63
2022-09-03T08:20:32.337Z,1.30
2022-09-03T08:23:01.685Z,1.33
2022-09-03T08:25:28.891Z,1.60
2022-09-03T08:27:58.668Z,1.60
2022-09-03T08:30:25.838Z,1.43
2022-09-03T08:32:53.007Z,1.47
2022-09-03T08:35:20.162Z,1.67
2022-09-03T08:37:48.666Z,1.53
2022-09-03T08:40:15.890Z,1.57
2022-09-03T08:42:49.835Z,1.80
2022-09-03T08:45:18.958Z,1.40
2022-09-03T08:47:47.333Z,1.43
2022-09-03T08:50:19.714Z,1.70
2022-09-03T08:52:50.598Z,2.30
2022-09-03T08:55:20.986Z,1.50
2022-09-03T08:57:49.149Z,1.50
2022-09-03T09:00:16.743Z,1.80
2022-09-03T09:02:49.407Z,1.40
2022-09-03T09:05:19.496Z,1.70
2022-09-03T09:07:52.672Z,1.70
2022-09-03T09:10:23.182Z,1.77
2022-09-03T09:12:59.001Z,1.53
2022-09-03T09:15:29.166Z,1.63
2022-09-03T09:18:04.538Z,1.83
2022-09-03T09:20:36.488Z,1.20
2022-09-03T09:23:06.018Z,1.90
2022-09-03T09:25:33.573Z,1.70
2022-09-03T09:28:01.556Z,1.80
2022-09-03T09:30:29.249Z,1.70
2022-09-03T09:32:56.458Z,1.80
2022-09-03T09:35:24.728Z,1.83
2022-09-03T09:37:53.286Z,2.07
2022-09-03T09:40:25.943Z,1.60
2022-09-03T09:43:03.189Z,1.83
2022-09-03T09:45:30.871Z,1.57
2022-09-03T09:47:58.201Z,1.73
2022-09-03T09:50:26.507Z,1.97
2022-09-03T09:53:00.655Z,1.67
2022-09-03T09:55:29.149Z,1.70
2022-09-03T09:58:05.362Z,2.10
2022-09-03T10:00:32.632Z,1.80
2022-09-03T10:03:00.033Z,2.17
2022-09-03T10:05:28.442Z,2.00
2022-09-03T10:07:56.186Z,1.70
2022-09-03T10:10:24.020Z,1.50
2022-09-03T10:12:55.379Z,2.07
2022-09-03T10:15:26.309Z,1.67
2022-09-03T10:17:57.033Z,1.90
2022-09-03T10:20:27.028Z,1.80
2022-09-03T10:22:57.164Z,1.93
2022-09-03T10:25:26.204Z,1.53
2022-09-03T10:27:54.922Z,2.00
2022-09-03T10:30:22.111Z,1.60
2022-09-03T10:32:56.130Z,2.10
2022-09-03T10:35:26.975Z,1.40
2022-09-03T10:37:56.112Z,1.90
2022-09-03T10:40:28.376Z,1.90
2022-09-03T10:43:00.780Z,1.97
2022-09-03T10:45:33.434Z,1.70
2022-09-03T10:48:12.811Z,2.37
2022-09-03T10:50:47.174Z,2.10
2022-09-03T10:53:18.185Z,2.10
2022-09-03T10:55:48.620Z,1.90
2022-09-03T10:58:27.472Z,2.07
2022-09-03T11:00:55.302Z,2.27
2022-09-03T11:03:37.750Z,1.90
2022-09-03T11:06:08.655Z,2.10
2022-09-03T11:08:38.435Z,2.07
2022-09-03T11:11:09.861Z,1.73
2022-09-03T11:13:41.003Z,2.07
2022-09-03T11:16:10.446Z,1.93
2022-09-03T11:18:39.720Z,2.10
2022-09-03T11:21:12.322Z,1.97
2022-09-03T11:23:42.743Z,2.13
2022-09-03T11:26:12.194Z,2.20
2022-09-03T11:28:42.830Z,2.00
2022-09-03T11:31:27.923Z,2.10
2022-09-03T11:33:57.326Z,1.80
2022-09-03T11:36:27.098Z,1.67
2022-09-03T11:38:54.239Z,2.00
2022-09-03T11:41:25.373Z,1.80
2022-09-03T11:43:54.020Z,2.40
2022-09-03T11:46:31.005Z,2.27
2022-09-03T11:49:09.482Z,2.07
2022-09-03T11:51:37.389Z,1.80
2022-09-03T11:54:05.761Z,2.03
2022-09-03T11:56:33.736Z,2.17
2022-09-03T11:59:04.260Z,2.40
2022-09-03T12:01:32.428Z,2.00
2022-09-03T12:04:00.293Z,2.30
2022-09-03T12:06:36.748Z,2.00
2022-09-03T12:09:18.765Z,2.33
2022-09-03T12:11:54.175Z,3.20
2022-09-03T12:14:25.778Z,3.30
2022-09-03T12:17:08.603Z,2.53
2022-09-03T12:19:38.033Z,2.70
2022-09-03T12:22:05.279Z,2.60
2022-09-03T12:24:34.662Z,2.67
2022-09-03T12:27:04.587Z,2.60
2022-09-03T12:29:33.096Z,2.77
2022-09-03T12:32:08.132Z,2.40
2022-09-03T12:34:35.374Z,2.60
2022-09-03T12:37:02.707Z,2.57
2022-09-03T12:42:21.256Z,2.40
2022-09-03T12:44:49.764Z,2.70
2022-09-03T12:47:36.127Z,2.50
2022-09-03T12:50:06.726Z,3.13
2022-09-03T12:52:35.213Z,2.80
2022-09-03T12:55:04.234Z,2.90
2022-09-03T12:57:34.096Z,3.00
2022-09-03T13:00:05.275Z,2.50
2022-09-03T13:02:38.346Z,2.97
2022-09-03T13:05:06.413Z,2.80
2022-09-03T13:07:34.835Z,2.40
2022-09-03T13:10:04.523Z,2.83
2022-09-03T13:12:33.635Z,2.97
2022-09-03T13:15:07.841Z,2.97
2022-09-03T13:17:53.542Z,2.57
2022-09-03T13:20:33.793Z,2.50
2022-09-03T13:23:12.453Z,3.00
2022-09-03T13:25:43.315Z,3.00
2022-09-03T13:28:15.938Z,2.73
2022-09-03T13:30:51.468Z,2.40
2022-09-03T13:33:21.034Z,2.93
2022-09-03T13:35:50.783Z,2.67
2022-09-03T13:38:22.285Z,3.60
2022-09-03T13:40:52.537Z,2.70
2022-09-03T13:43:24.499Z,2.30
2022-09-03T13:45:56.847Z,2.10
2022-09-03T13:48:26.538Z,2.90
2022-09-03T13:51:00.015Z,2.70
2022-09-03T13:53:32.637Z,2.80
2022-09-03T13:56:03.640Z,2.67
2022-09-03T13:58:32.823Z,2.27
2022-09-03T14:01:08.588Z,2.47
2022-09-03T14:03:37.503Z,3.07
2022-09-03T14:06:08.058Z,2.53
2022-09-03T14:08:38.845Z,2.30
2022-09-03T14:11:14.597Z,2.40
2022-09-03T14:13:46.861Z,2.10
2022-09-03T14:16:19.785Z,2.70
2022-09-03T14:18:50.651Z,2.50
2022-09-03T14:21:19.258Z,2.70
2022-09-03T14:23:48.455Z,2.40
2022-09-03T14:26:31.083Z,2.43
2022-09-03T14:29:07.347Z,2.17
2022-09-03T14:31:48.754Z,2.37
2022-09-03T14:34:19.071Z,2.80
2022-09-03T14:36:51.149Z,2.00
2022-09-03T14:39:24.471Z,2.47
2022-09-03T14:42:11.138Z,2.13
2022-09-03T14:44:56.692Z,2.60
2022-09-03T14:47:30.621Z,2.60
2022-09-03T14:50:03.807Z,2.00
2022-09-03T14:52:41.558Z,2.40
2022-09-03T14:55:23.581Z,2.40
2022-09-03T14:58:06.551Z,2.60
2022-09-03T15:00:34.608Z,2.30
2022-09-03T15:03:14.968Z,2.63
2022-09-03T15:05:48.995Z,2.50
2022-09-03T15:08:21.282Z,2.50
2022-09-03T15:10:56.360Z,2.90
2022-09-03T15:13:26.231Z,2.40
2022-09-03T15:16:00.866Z,2.97
2022-09-03T15:18:31.467Z,2.20
2022-09-03T15:21:02.173Z,2.73
2022-09-03T15:23:52.646Z,3.07
2022-09-03T15:26:29.827Z,2.60
2022-09-03T15:29:04.353Z,4.03
2022-09-03T15:31:36.038Z,3.07
2022-09-03T15:34:11.799Z,2.50
2022-09-03T15:36:41.889Z,2.80
2022-09-03T15:39:11.368Z,2.37
2022-09-03T15:41:41.669Z,2.60
2022-09-03T15:44:18.401Z,2.30
2022-09-03T15:46:50.031Z,2.60
2022-09-03T15:49:23.776Z,2.53
2022-09-03T15:51:59.251Z,3.27
2022-09-03T15:54:33.443Z,2.70
2022-09-03T15:57:04.108Z,2.87
2022-09-03T15:59:36.278Z,2.80
2022-09-03T16:02:06.224Z,2.87
2022-09-03T16:04:43.928Z,2.30
2022-09-03T16:07:16.965Z,2.63
2022-09-03T16:10:07.654Z,2.17
2022-09-03T16:12:40.170Z,2.77
2022-09-03T16:15:10.304Z,2.47
2022-09-03T16:17:43.833Z,2.60
2022-09-03T16:20:17.493Z,2.90
2022-09-03T16:22:47.810Z,2.67
2022-09-03T16:25:16.850Z,2.40
2022-09-03T16:27:51.906Z,2.87
2022-09-03T16:30:23.560Z,3.03
2022-09-03T16:32:57.938Z,3.33
2022-09-03T16:35:30.528Z,3.07
2022-09-03T16:38:06.209Z,2.30
2022-09-03T16:40:37.556Z,2.80
2022-09-03T16:43:29.983Z,2.17
2022-09-03T16:46:01.141Z,2.83
2022-09-03T16:48:32.063Z,2.93
2022-09-03T16:51:08.066Z,2.90
2022-09-03T16:53:42.330Z,2.30
2022-09-03T16:56:19.406Z,2.60
2022-09-03T16:58:54.090Z,3.27
2022-09-03T17:01:28.226Z,2.70
2022-09-03T17:04:08.717Z,2.40
2022-09-03T17:06:40.970Z,3.03
2022-09-03T17:09:16.599Z,2.57
2022-09-03T17:11:50.210Z,2.53
2022-09-03T17:14:23.008Z,2.47
2022-09-03T17:16:55.784Z,3.17
2022-09-03T17:19:26.123Z,2.83
2022-09-03T17:22:00.489Z,3.17
2022-09-03T17:24:35.562Z,3.00
2022-09-03T17:27:12.482Z,2.70
2022-09-03T17:29:45.766Z,2.10
2022-09-03T17:32:21.219Z,2.17
2022-09-03T17:34:55.041Z,2.10
2022-09-03T17:37:27.637Z,2.90
2022-09-03T17:40:02.364Z,2.10
2022-09-03T17:42:32.462Z,2.37
2022-09-03T17:45:06.819Z,2.40
2022-09-03T17:48:03.958Z,2.30
2022-09-03T17:50:32.986Z,2.43
2022-09-03T17:53:03.498Z,2.20
2022-09-03T17:55:33.606Z,2.30
2022-09-03T17:58:04.297Z,2.60
2022-09-03T18:00:33.490Z,2.40
2022-09-03T18:03:02.854Z,2.50
2022-09-03T18:05:31.253Z,2.57
2022-09-03T18:08:01.491Z,2.70
2022-09-03T18:10:32.840Z,2.07
2022-09-03T18:13:08.380Z,2.27
2022-09-03T18:15:37.629Z,2.90
2022-09-03T18:18:06.334Z,2.77
2022-09-03T18:20:41.570Z,2.03
2022-09-03T18:23:11.496Z,2.70
2022-09-03T18:25:41.470Z,2.63
2022-09-03T18:28:10.503Z,2.93
2022-09-03T18:30:37.634Z,2.10
2022-09-03T18:33:04.899Z,2.57
2022-09-03T18:35:34.787Z,2.50
2022-09-03T18:38:03.077Z,2.30
2022-09-03T18:40:40.786Z,2.60
2022-09-03T18:43:14.537Z,2.60
2022-09-03T18:46:13.658Z,2.90
2022-09-03T18:48:35.041Z,2.70
2022-09-03T18:51:07.046Z,2.70
2022-09-03T18:53:40.604Z,3.00
2022-09-03T18:56:09.758Z,2.53
2022-09-03T18:58:42.750Z,2.60
2022-09-03T19:01:15.418Z,2.47
2022-09-03T19:03:50.450Z,2.23
2022-09-03T19:06:22.705Z,2.57
2022-09-03T19:08:53.579Z,2.40
2022-09-03T19:11:27.369Z,2.90
2022-09-03T19:13:59.273Z,3.00
2022-09-03T19:16:30.795Z,2.87
2022-09-03T19:19:18.331Z,2.43
2022-09-03T19:21:48.448Z,2.33
2022-09-03T19:24:15.670Z,2.50
2022-09-03T19:26:46.055Z,2.50
2022-09-03T19:29:20.189Z,2.00
2022-09-03T19:31:48.792Z,2.87
2022-09-03T19:34:29.179Z,2.40
2022-09-03T19:37:01.151Z,2.60
2022-09-03T19:39:34.657Z,2.23
2022-09-03T19:42:03.637Z,2.10
2022-09-03T19:44:39.546Z,2.77
2022-09-03T19:47:08.471Z,2.30
2022-09-03T19:49:41.608Z,2.53
2022-09-03T19:52:12.154Z,2.80
2022-09-03T19:54:39.498Z,2.40
2022-09-03T19:57:06.661Z,2.53
2022-09-03T19:59:36.771Z,2.43
2022-09-03T20:02:04.222Z,2.53
2022-09-03T20:04:32.584Z,2.70
2022-09-03T20:07:01.393Z,2.30
2022-09-03T20:09:29.935Z,2.37
2022-09-03T20:11:58.636Z,2.43
2022-09-03T20:14:25.798Z,2.30
2022-09-03T20:17:01.792Z,2.73
2022-09-03T20:19:33.296Z,3.00
2022-09-03T20:22:03.461Z,2.90
2022-09-03T20:24:35.325Z,2.73
2022-09-03T20:27:09.437Z,2.70
2022-09-03T20:29:54.275Z,2.53
2022-09-03T20:32:29.855Z,2.73
2022-09-03T20:35:01.395Z,2.70
2022-09-03T20:37:29.579Z,2.47
2022-09-03T20:40:05.121Z,2.67
2022-09-03T20:42:54.909Z,2.17
2022-09-03T20:45:24.447Z,2.60
2022-09-03T20:48:03.644Z,2.20
2022-09-03T20:50:39.469Z,2.50
2022-09-03T20:53:13.278Z,2.20
2022-09-03T20:55:42.396Z,2.33
2022-09-03T20:58:14.732Z,2.77
2022-09-03T21:00:47.219Z,2.57
2022-09-03T21:03:18.831Z,2.23
2022-09-03T21:05:52.410Z,2.63
2022-09-03T21:08:25.242Z,1.97
2022-09-03T21:10:54.481Z,2.00
2022-09-03T21:13:24.683Z,2.97
2022-09-03T21:15:56.920Z,2.60
2022-09-03T21:18:30.009Z,3.20
2022-09-03T21:21:02.687Z,2.20
2022-09-03T21:23:32.056Z,2.50
2022-09-03T21:26:02.010Z,2.20
2022-09-03T21:28:32.153Z,2.43
2022-09-03T21:31:00.883Z,2.70
2022-09-03T21:33:30.358Z,2.77
2022-09-03T21:36:03.904Z,2.83
2022-09-03T21:38:32.940Z,3.30
2022-09-03T21:41:00.872Z,3.40
2022-09-03T21:43:32.125Z,2.90
2022-09-03T21:46:02.318Z,3.00
2022-09-03T21:48:33.198Z,3.00
2022-09-03T21:51:01.411Z,2.50
2022-09-03T21:53:31.067Z,2.93
2022-09-03T21:56:25.998Z,2.53
2022-09-03T21:59:07.000Z,3.63
2022-09-03T22:01:41.565Z,3.00
2022-09-03T22:04:10.048Z,3.00
2022-09-03T22:06:39.321Z,3.10
2022-09-03T22:09:10.054Z,3.60
2022-09-03T22:11:40.827Z,3.40
2022-09-03T22:14:10.242Z,3.07
2022-09-03T22:16:39.681Z,2.97
2022-09-03T22:19:06.850Z,2.57
2022-09-03T22:21:39.019Z,2.80
2022-09-03T22:24:09.262Z,3.07
2022-09-03T22:26:41.231Z,2.83
2022-09-03T22:29:14.254Z,3.70
2022-09-03T22:31:49.644Z,3.13
2022-09-03T22:34:22.287Z,2.60
2022-09-03T22:36:52.013Z,2.80
2022-09-03T22:39:23.057Z,3.10
2022-09-03T22:41:57.446Z,3.27
2022-09-03T22:44:31.212Z,3.50
2022-09-03T22:47:04.521Z,3.37
2022-09-03T22:49:38.414Z,3.27
2022-09-03T22:52:17.487Z,3.53
2022-09-03T22:54:48.329Z,2.87
2022-09-03T22:57:16.448Z,3.60
2022-09-03T22:59:44.828Z,3.23
2022-09-03T23:02:13.736Z,3.07
2022-09-03T23:04:42.645Z,3.40
2022-09-03T23:07:13.981Z,2.90
2022-09-03T23:09:41.735Z,3.43
2022-09-03T23:12:10.790Z,3.87
2022-09-03T23:14:40.483Z,3.90
2022-09-03T23:17:10.066Z,3.80
2022-09-03T23:19:39.287Z,3.50
2022-09-03T23:22:08.225Z,4.27
2022-09-03T23:24:39.418Z,4.10
2022-09-03T23:27:07.945Z,4.00
2022-09-03T23:29:37.905Z,3.80
2022-09-03T23:32:05.420Z,4.50
2022-09-03T23:34:33.263Z,4.87
2022-09-03T23:37:32.911Z,4.47
2022-09-03T23:40:21.333Z,4.00
2022-09-03T23:43:00.190Z,4.30
2022-09-03T23:45:30.093Z,4.60
2022-09-03T23:48:02.898Z,4.97
2022-09-03T23:50:32.669Z,4.37
2022-09-03T23:53:10.400Z,4.60
2022-09-03T23:55:44.573Z,5.40
2022-09-03T23:58:15.603Z,4.77
